Time;durP1;ratioP1;P1;durP2;ratioP2;P2;SDS_P1;SDS_P2;PMS_P1;PMS_P2;Temp;Humidity;BMP_temperature;BMP_pressure;BME280_temperature;BME280_humidity;BME280_pressure;Samples;Min_cycle;Max_cycle;Signal;HPM_P1;HPM_P2
2023/04/01 00:01:30;;;;;;;11.07;6.28;;;9.70;99.90;;;;;;5056295;28;20048;-84
2023/04/01 00:03:56;;;;;;;11.88;6.38;;;9.70;99.90;;;;;;5040887;28;20370;-83
2023/04/01 00:06:22;;;;;;;12.55;6.50;;;9.70;99.90;;;;;;5054047;28;20044;-85
2023/04/01 00:08:48;;;;;;;11.82;5.93;;;9.70;99.90;;;;;;5055765;28;20162;-83
2023/04/01 00:11:15;;;;;;;10.85;6.32;;;9.70;99.90;;;;;;5055036;28;20436;-83
2023/04/01 00:13:41;;;;;;;12.20;6.25;;;9.70;99.90;;;;;;5054962;28;20056;-84
2023/04/01 00:16:08;;;;;;;12.73;6.13;;;9.70;99.90;;;;;;5068751;28;20363;-84
2023/04/01 00:18:33;;;;;;;12.23;6.70;;;9.70;99.90;;;;;;5092131;28;20074;-83
2023/04/01 00:20:59;;;;;;;13.15;6.30;;;9.70;99.90;;;;;;5088122;28;20481;-84
2023/04/01 00:23:25;;;;;;;13.35;6.93;;;9.70;99.90;;;;;;5062254;28;20044;-84
2023/04/01 00:25:50;;;;;;;12.57;6.55;;;9.70;99.90;;;;;;5044957;28;20047;-83
2023/04/01 00:28:18;;;;;;;15.55;6.85;;;9.70;99.90;;;;;;5076849;28;20497;-84
2023/04/01 00:30:44;;;;;;;11.57;6.80;;;9.70;99.90;;;;;;5065860;28;20048;-84
2023/04/01 00:33:10;;;;;;;16.25;6.30;;;9.70;99.90;;;;;;5065881;28;20051;-84
2023/04/01 00:35:36;;;;;;;13.73;6.75;;;9.70;99.90;;;;;;5069499;28;20398;-83
2023/04/01 00:38:02;;;;;;;13.50;6.70;;;9.70;99.90;;;;;;5057899;28;20040;-83
2023/04/01 00:40:33;;;;;;;12.90;6.93;;;9.70;99.90;;;;;;5079428;28;20139;-85
2023/04/01 00:42:59;;;;;;;10.25;6.10;;;9.70;99.90;;;;;;5075610;28;20508;-83
2023/04/01 00:45:27;;;;;;;13.18;6.75;;;9.60;99.90;;;;;;5069868;28;20565;-83
2023/04/01 00:47:53;;;;;;;12.27;6.70;;;9.60;99.90;;;;;;5074010;28;20044;-84
2023/04/01 00:50:19;;;;;;;11.50;6.47;;;9.60;99.90;;;;;;5082399;28;20040;-84
2023/04/01 00:52:46;;;;;;;11.35;6.75;;;9.60;99.90;;;;;;5081011;28;20048;-84
2023/04/01 00:55:14;;;;;;;11.68;6.57;;;9.60;99.90;;;;;;5037027;28;20489;-83
2023/04/01 00:57:43;;;;;;;14.48;7.00;;;9.60;99.90;;;;;;5062207;28;20550;-84
2023/04/01 01:00:13;;;;;;;10.85;6.70;;;9.60;99.90;;;;;;5057009;28;20098;-84
2023/04/01 01:02:42;;;;;;;12.77;6.50;;;9.60;99.90;;;;;;5054897;28;20058;-84
2023/04/01 01:05:11;;;;;;;14.18;6.95;;;9.60;99.90;;;;;;5084614;28;20050;-84
2023/04/01 01:07:47;;;;;;;12.98;6.53;;;9.60;99.90;;;;;;5090682;28;20040;-83
2023/04/01 01:10:17;;;;;;;12.00;6.43;;;9.70;99.90;;;;;;5066120;28;20099;-83
2023/04/01 01:13:05;;;;;;;14.57;6.40;;;9.60;99.90;;;;;;5056298;28;20074;-83
2023/04/01 01:16:00;;;;;;;12.20;6.80;;;9.60;99.90;;;;;;5072543;28;20051;-85
2023/04/01 01:18:41;;;;;;;10.93;6.05;;;9.70;99.90;;;;;;5057514;28;20040;-83
2023/04/01 01:21:25;;;;;;;9.93;5.88;;;9.70;99.90;;;;;;5048015;28;20067;-83
2023/04/01 01:24:08;;;;;;;14.45;5.82;;;9.60;99.90;;;;;;5054799;28;20611;-83
2023/04/01 01:27:02;;;;;;;15.10;6.78;;;9.70;99.90;;;;;;5052311;28;20082;-84
2023/04/01 01:29:54;;;;;;;13.57;5.82;;;9.70;99.90;;;;;;5087266;28;20044;-82
2023/04/01 01:32:42;;;;;;;13.13;6.13;;;9.60;99.90;;;;;;5075142;28;20043;-83
2023/04/01 01:35:19;;;;;;;12.93;6.40;;;9.60;99.90;;;;;;5065359;28;20141;-83
2023/04/01 01:37:46;;;;;;;15.57;6.35;;;9.70;99.90;;;;;;5083777;28;20441;-82
2023/04/01 01:40:14;;;;;;;11.55;6.28;;;9.60;99.90;;;;;;5059905;28;20059;-83
2023/04/01 01:42:46;;;;;;;13.50;6.28;;;9.60;99.90;;;;;;5051056;28;20066;-83
2023/04/01 01:45:14;;;;;;;12.20;6.25;;;9.60;99.90;;;;;;5079786;28;20493;-83
2023/04/01 01:47:41;;;;;;;14.18;6.45;;;9.70;99.90;;;;;;5057838;28;20079;-83
2023/04/01 01:50:09;;;;;;;13.82;6.38;;;9.60;99.90;;;;;;5081054;28;20040;-83
2023/04/01 01:52:35;;;;;;;11.88;5.97;;;9.60;99.90;;;;;;5067357;28;20055;-84
2023/04/01 01:55:00;;;;;;;10.82;6.07;;;9.60;99.90;;;;;;5075048;28;20048;-83
2023/04/01 01:57:31;;;;;;;15.85;6.53;;;9.60;99.90;;;;;;5039606;28;20054;-84
2023/04/01 02:00:12;;;;;;;9.93;5.00;;;9.60;99.90;;;;;;5078347;28;20058;-82
2023/04/01 02:02:41;;;;;;;9.00;4.40;;;9.60;99.90;;;;;;5083643;28;20118;-85
2023/04/01 02:05:10;;;;;;;10.13;4.63;;;9.60;99.90;;;;;;5107540;28;20047;-81
2023/04/01 02:07:39;;;;;;;8.20;4.10;;;9.60;99.90;;;;;;5081508;28;20053;-81
2023/04/01 02:10:06;;;;;;;8.10;3.83;;;9.60;99.90;;;;;;5065506;28;20052;-82
2023/04/01 02:12:34;;;;;;;7.55;3.67;;;9.60;99.90;;;;;;5076597;28;20036;-82
2023/04/01 02:15:06;;;;;;;5.57;3.22;;;9.60;99.90;;;;;;5070441;28;20044;-83
2023/04/01 02:17:33;;;;;;;8.80;4.05;;;9.60;99.90;;;;;;5057413;28;20097;-82
2023/04/01 02:20:01;;;;;;;7.50;3.55;;;9.60;99.90;;;;;;5080039;28;20078;-83
2023/04/01 02:22:31;;;;;;;7.03;3.00;;;9.60;99.90;;;;;;5072650;28;20519;-83
2023/04/01 02:25:07;;;;;;;5.70;3.03;;;9.60;99.90;;;;;;5086946;28;20071;-83
2023/04/01 02:27:33;;;;;;;4.20;2.42;;;9.60;99.90;;;;;;5049532;28;20405;-84
2023/04/01 02:29:59;;;;;;;7.60;2.55;;;9.50;99.90;;;;;;5057363;28;20039;-83
2023/04/01 02:32:26;;;;;;;4.88;2.22;;;9.60;99.90;;;;;;5046078;28;20051;-83
2023/04/01 02:34:52;;;;;;;4.10;1.90;;;9.50;99.90;;;;;;5090407;28;20096;-82
2023/04/01 02:37:18;;;;;;;3.78;1.90;;;9.50;99.90;;;;;;5075216;28;20032;-83
2023/04/01 02:39:44;;;;;;;2.90;1.80;;;9.50;99.90;;;;;;5072011;28;20134;-84
2023/04/01 02:42:10;;;;;;;4.72;1.70;;;9.60;99.90;;;;;;5082787;28;20123;-83
2023/04/01 02:44:36;;;;;;;2.85;1.60;;;9.50;99.90;;;;;;5058962;28;20039;-82
2023/04/01 02:47:02;;;;;;;4.03;1.90;;;9.50;99.90;;;;;;5060717;28;20396;-83
2023/04/01 02:49:27;;;;;;;3.67;1.50;;;9.50;99.90;;;;;;5079607;28;20058;-82
2023/04/01 02:51:53;;;;;;;7.28;1.60;;;9.50;99.90;;;;;;5049411;28;20072;-82
2023/04/01 02:54:19;;;;;;;4.07;1.95;;;9.50;99.90;;;;;;5066919;28;20051;-81
2023/04/01 02:56:45;;;;;;;3.50;1.75;;;9.50;99.90;;;;;;5057040;28;20051;-84
2023/04/01 02:59:11;;;;;;;3.28;1.85;;;9.50;99.90;;;;;;5043313;28;20054;-82
2023/04/01 03:01:36;;;;;;;5.35;2.20;;;9.50;99.90;;;;;;5050526;28;20044;-82
2023/04/01 03:04:02;;;;;;;5.50;2.35;;;9.50;99.90;;;;;;5048376;28;20403;-80
2023/04/01 03:06:28;;;;;;;4.85;2.03;;;9.50;99.90;;;;;;5071784;28;20053;-82
2023/04/01 03:08:54;;;;;;;4.45;2.22;;;9.50;99.90;;;;;;5041957;28;20047;-80
2023/04/01 03:11:21;;;;;;;3.58;1.60;;;9.50;99.90;;;;;;5064063;28;20068;-81
2023/04/01 03:13:46;;;;;;;4.22;1.98;;;9.50;99.90;;;;;;5060425;28;20050;-80
2023/04/01 03:16:13;;;;;;;5.28;1.98;;;9.50;99.90;;;;;;5053537;28;20036;-81
2023/04/01 03:18:38;;;;;;;3.97;2.00;;;9.50;99.90;;;;;;5069946;28;20547;-81
2023/04/01 03:21:20;;;;;;;3.03;2.00;;;9.50;99.90;;;;;;5060796;28;20044;-83
2023/04/01 03:23:46;;;;;;;5.00;2.00;;;9.50;99.90;;;;;;5081058;28;20059;-82
2023/04/01 03:26:12;;;;;;;4.38;2.22;;;9.40;99.90;;;;;;5053907;28;20051;-81
2023/04/01 03:28:38;;;;;;;4.63;2.35;;;9.50;99.90;;;;;;5049733;28;20485;-82
2023/04/01 03:31:03;;;;;;;6.80;2.70;;;9.50;99.90;;;;;;5064851;28;20036;-82
2023/04/01 03:33:29;;;;;;;5.93;2.30;;;9.50;99.90;;;;;;5035522;28;20408;-83
2023/04/01 03:35:55;;;;;;;5.28;2.53;;;9.50;99.90;;;;;;5071382;28;20117;-82
2023/04/01 03:38:20;;;;;;;8.00;2.88;;;9.50;99.90;;;;;;5035359;28;20121;-83
2023/04/01 03:40:46;;;;;;;7.50;3.17;;;9.50;99.90;;;;;;5055461;28;20105;-85
2023/04/01 03:43:12;;;;;;;7.07;3.28;;;9.60;99.90;;;;;;5055076;28;20040;-83
2023/04/01 03:45:51;;;;;;;10.38;3.45;;;9.60;99.90;;;;;;5051633;28;20382;-83
2023/04/01 03:48:17;;;;;;;11.45;3.90;;;9.60;99.90;;;;;;5055917;28;20040;-84
2023/04/01 03:50:44;;;;;;;7.47;3.45;;;9.60;99.90;;;;;;5071819;28;20059;-83
2023/04/01 03:53:10;;;;;;;9.90;3.70;;;9.50;99.90;;;;;;5049544;28;20082;-83
2023/04/01 03:55:37;;;;;;;8.98;3.95;;;9.60;99.90;;;;;;5072419;28;20097;-84
2023/04/01 03:58:03;;;;;;;10.75;4.47;;;9.60;99.90;;;;;;5072004;28;20538;-82
2023/04/01 04:00:30;;;;;;;12.82;5.38;;;9.60;99.90;;;;;;5045245;28;20057;-83
2023/04/01 04:02:56;;;;;;;12.30;4.60;;;9.60;99.90;;;;;;5069584;28;20039;-83
2023/04/01 04:05:23;;;;;;;12.98;4.97;;;9.60;99.90;;;;;;5078852;28;20043;-83
2023/04/01 04:07:49;;;;;;;13.10;5.57;;;9.60;99.90;;;;;;5062243;28;20051;-82
2023/04/01 04:10:15;;;;;;;9.73;4.90;;;9.60;99.90;;;;;;5058183;28;20068;-82
2023/04/01 04:12:41;;;;;;;14.65;5.75;;;9.60;99.90;;;;;;5057888;28;20485;-83
2023/04/01 04:15:08;;;;;;;13.02;5.40;;;9.60;99.90;;;;;;5051287;28;20142;-82
2023/04/01 04:17:34;;;;;;;12.68;5.68;;;9.60;99.90;;;;;;5070827;28;20052;-83
2023/04/01 04:19:59;;;;;;;14.13;6.32;;;9.60;99.90;;;;;;5059074;28;20051;-83
2023/04/01 04:22:25;;;;;;;13.65;5.88;;;9.60;99.90;;;;;;5071292;28;20325;-83
2023/04/01 04:24:51;;;;;;;14.95;6.28;;;9.60;99.90;;;;;;5083510;28;20132;-82
2023/04/01 04:27:16;;;;;;;13.68;5.78;;;9.60;99.90;;;;;;5048799;28;20044;-82
2023/04/01 04:29:42;;;;;;;18.02;6.70;;;9.60;99.90;;;;;;5072829;28;20123;-81
2023/04/01 04:32:08;;;;;;;14.88;6.40;;;9.60;99.90;;;;;;5032331;28;20045;-81
2023/04/01 04:34:34;;;;;;;11.95;5.90;;;9.60;99.90;;;;;;5054715;28;20044;-82
2023/04/01 04:37:00;;;;;;;17.00;5.97;;;9.60;99.90;;;;;;5074485;28;20047;-84
2023/04/01 04:39:25;;;;;;;15.30;6.15;;;9.60;99.90;;;;;;5074322;28;20082;-82
2023/04/01 04:41:51;;;;;;;17.38;6.72;;;9.60;99.90;;;;;;5074117;28;20055;-82
2023/04/01 04:44:17;;;;;;;15.95;7.00;;;9.60;99.90;;;;;;5084522;28;20690;-82
2023/04/01 04:46:42;;;;;;;21.52;7.70;;;9.60;99.90;;;;;;5071005;28;20482;-83
2023/04/01 04:49:09;;;;;;;17.42;7.53;;;9.60;99.90;;;;;;5040814;28;20048;-82
2023/04/01 04:51:35;;;;;;;17.85;7.22;;;9.70;99.90;;;;;;5071461;28;20043;-82
2023/04/01 04:54:05;;;;;;;17.85;7.25;;;9.70;99.90;;;;;;5044539;28;20047;-85
2023/04/01 04:56:32;;;;;;;18.15;7.43;;;9.60;99.90;;;;;;5097759;28;20047;-84
2023/04/01 04:58:58;;;;;;;17.13;7.15;;;9.60;99.90;;;;;;5057779;28;20052;-82
2023/04/01 05:01:25;;;;;;;17.77;7.03;;;9.60;99.90;;;;;;5051531;28;20121;-82
2023/04/01 05:03:51;;;;;;;16.92;7.22;;;9.60;99.90;;;;;;5074704;28;20048;-82
2023/04/01 05:06:18;;;;;;;16.88;7.05;;;9.60;99.90;;;;;;5053855;28;20044;-82
2023/04/01 05:08:45;;;;;;;15.73;7.25;;;9.60;99.90;;;;;;5091565;28;20036;-84
2023/04/01 05:11:16;;;;;;;20.38;7.05;;;9.70;99.90;;;;;;5081404;28;20040;-83
2023/04/01 05:13:42;;;;;;;19.05;6.95;;;9.60;99.90;;;;;;5045983;28;20056;-83
2023/04/01 05:16:14;;;;;;;16.90;6.65;;;9.60;99.90;;;;;;5080575;28;20562;-83
2023/04/01 05:18:39;;;;;;;17.45;6.93;;;9.70;99.90;;;;;;5075516;28;20128;-83
2023/04/01 05:21:08;;;;;;;16.33;7.13;;;9.60;99.90;;;;;;5042704;28;20271;-83
2023/04/01 05:23:34;;;;;;;18.13;6.80;;;9.70;99.90;;;;;;5067353;28;20067;-84
2023/04/01 05:26:07;;;;;;;19.25;6.75;;;9.70;99.90;;;;;;5071054;28;20474;-83
2023/04/01 05:28:32;;;;;;;21.83;7.72;;;9.70;99.90;;;;;;5091001;28;20043;-84
2023/04/01 05:31:00;;;;;;;19.60;7.55;;;9.70;99.90;;;;;;5056252;28;20048;-86
2023/04/01 05:33:27;;;;;;;18.00;7.75;;;9.70;99.90;;;;;;5071525;28;20040;-83
2023/04/01 05:35:53;;;;;;;21.05;8.18;;;9.70;99.90;;;;;;5066473;28;20049;-85
2023/04/01 05:38:19;;;;;;;17.63;7.45;;;9.70;99.90;;;;;;5063539;28;20076;-83
2023/04/01 05:40:45;;;;;;;20.38;7.80;;;9.70;99.90;;;;;;5060728;28;20135;-83
2023/04/01 05:43:11;;;;;;;21.35;8.80;;;9.60;99.90;;;;;;5045351;28;20048;-84
2023/04/01 05:45:37;;;;;;;14.18;6.60;;;9.70;99.90;;;;;;5039485;28;20553;-84
2023/04/01 05:48:03;;;;;;;16.20;6.43;;;9.70;99.90;;;;;;5063567;28;20178;-84
2023/04/01 05:50:29;;;;;;;16.50;5.72;;;9.70;99.90;;;;;;5066318;28;20090;-85
2023/04/01 05:52:55;;;;;;;15.32;6.63;;;9.70;99.90;;;;;;5050889;28;20081;-84
2023/04/01 05:55:20;;;;;;;14.20;5.90;;;9.60;99.90;;;;;;5055138;28;20120;-85
2023/04/01 05:57:48;;;;;;;17.23;5.38;;;9.70;99.90;;;;;;5052251;28;20093;-84
2023/04/01 06:00:14;;;;;;;12.88;5.50;;;9.70;99.90;;;;;;5063427;28;20490;-84
2023/04/01 06:02:41;;;;;;;12.57;5.22;;;9.60;99.90;;;;;;5082885;28;20048;-82
2023/04/01 06:05:26;;;;;;;13.18;5.10;;;9.60;99.90;;;;;;5065870;28;20040;-82
2023/04/01 06:07:58;;;;;;;10.60;5.18;;;9.60;99.90;;;;;;5081946;28;20429;-83
2023/04/01 06:10:49;;;;;;;11.30;5.13;;;9.60;99.90;;;;;;5046419;28;20480;-83
2023/04/01 06:13:40;;;;;;;13.75;5.97;;;9.60;99.90;;;;;;5081708;28;20058;-84
2023/04/01 06:16:18;;;;;;;14.60;5.80;;;9.60;99.90;;;;;;5074819;28;20092;-84
2023/04/01 06:19:12;;;;;;;13.63;5.75;;;9.60;99.90;;;;;;5083514;28;20080;-82
2023/04/01 06:21:44;;;;;;;14.50;5.40;;;9.60;99.90;;;;;;5069598;28;20058;-82
2023/04/01 06:24:31;;;;;;;14.55;5.97;;;9.60;99.90;;;;;;5071973;28;20051;-81
2023/04/01 06:27:34;;;;;;;17.75;6.18;;;9.60;99.90;;;;;;5062997;28;20131;-82
2023/04/01 06:30:25;;;;;;;19.02;6.80;;;9.60;99.90;;;;;;5056725;28;20066;-80
2023/04/01 06:33:12;;;;;;;18.92;8.00;;;9.50;99.90;;;;;;5055339;28;20528;-80
2023/04/01 06:35:44;;;;;;;19.75;8.05;;;9.60;99.90;;;;;;5058870;28;20041;-80
2023/04/01 06:38:15;;;;;;;23.55;8.57;;;9.50;99.90;;;;;;5071702;28;20048;-81
2023/04/01 06:41:29;;;;;;;21.40;8.98;;;9.50;99.90;;;;;;5059766;28;20509;-84
2023/04/01 06:44:13;;;;;;;23.10;9.05;;;9.60;99.90;;;;;;5017299;28;20105;-84
2023/04/01 06:46:54;;;;;;;27.27;9.18;;;9.60;99.90;;;;;;5071109;28;20127;-82
2023/04/01 06:49:22;;;;;;;29.48;9.23;;;9.60;99.90;;;;;;5071487;28;20058;-84
2023/04/01 06:51:48;;;;;;;27.67;9.57;;;9.70;99.90;;;;;;5072663;28;20044;-83
2023/04/01 06:54:20;;;;;;;25.83;9.80;;;9.70;99.90;;;;;;5054538;28;20382;-85
2023/04/01 06:56:49;;;;;;;25.60;9.75;;;9.80;99.90;;;;;;5070992;28;20036;-84
2023/04/01 06:59:26;;;;;;;29.10;9.70;;;10.00;99.90;;;;;;5080835;28;20064;-84
2023/04/01 07:02:04;;;;;;;28.75;10.38;;;10.20;99.90;;;;;;5060383;28;20151;-83
2023/04/01 07:04:34;;;;;;;29.92;11.18;;;10.30;99.90;;;;;;5067992;28;20686;-83
2023/04/01 07:07:16;;;;;;;28.55;10.38;;;10.50;99.90;;;;;;5085914;28;20087;-83
2023/04/01 07:09:49;;;;;;;39.95;18.10;;;10.60;99.90;;;;;;5062687;28;20067;-84
2023/04/01 07:12:26;;;;;;;21.98;10.20;;;10.70;99.90;;;;;;5061447;28;20128;-83
2023/04/01 07:14:54;;;;;;;21.13;9.35;;;10.70;99.90;;;;;;5050681;28;20559;-84
2023/04/01 07:17:27;;;;;;;29.40;13.85;;;10.80;99.90;;;;;;5053364;28;20123;-89
2023/04/01 07:20:03;;;;;;;25.63;11.73;;;10.80;99.90;;;;;;5050366;28;20037;-85
2023/04/01 07:22:43;;;;;;;27.35;10.90;;;10.90;99.90;;;;;;5045161;28;20121;-84
2023/04/01 07:25:15;;;;;;;20.70;9.63;;;10.80;99.90;;;;;;5048500;28;20037;-85
2023/04/01 07:27:45;;;;;;;21.98;10.00;;;10.70;99.90;;;;;;5046727;28;20136;-86
2023/04/01 07:30:17;;;;;;;25.70;10.82;;;10.70;99.90;;;;;;5068788;28;20063;-86
2023/04/01 07:33:11;;;;;;;26.00;11.88;;;10.70;99.90;;;;;;5051473;28;20123;-85
2023/04/01 07:35:59;;;;;;;23.58;10.52;;;10.80;99.90;;;;;;5054782;28;20048;-86
2023/04/01 07:38:28;;;;;;;23.95;11.05;;;10.70;99.90;;;;;;5037254;28;20049;-86
2023/04/01 07:40:59;;;;;;;20.80;9.85;;;10.80;99.90;;;;;;5059331;28;20393;-85
2023/04/01 07:43:31;;;;;;;20.77;10.48;;;10.90;99.90;;;;;;5050835;28;20219;-86
2023/04/01 07:46:08;;;;;;;21.75;9.57;;;10.90;99.90;;;;;;5050932;28;20197;-85
2023/04/01 07:48:55;;;;;;;21.63;10.55;;;11.00;99.90;;;;;;5036708;28;20049;-86
2023/04/01 07:51:29;;;;;;;20.00;10.30;;;11.00;99.90;;;;;;5057902;28;20371;-89
2023/04/01 07:54:07;;;;;;;21.50;10.05;;;11.10;99.90;;;;;;5047844;28;20052;-86
2023/04/01 07:56:32;;;;;;;23.40;10.18;;;11.20;99.90;;;;;;5044542;28;20051;-86
2023/04/01 07:59:12;;;;;;;17.80;9.15;;;11.20;99.90;;;;;;5063806;28;20147;-87
2023/04/01 08:01:54;;;;;;;20.13;9.45;;;11.20;99.90;;;;;;5057972;28;20079;-86
2023/04/01 08:04:42;;;;;;;20.30;9.93;;;11.30;99.90;;;;;;5054154;28;20051;-89
2023/04/01 08:07:30;;;;;;;19.08;9.88;;;11.20;99.90;;;;;;5042623;28;20072;-86
2023/04/01 08:10:19;;;;;;;21.38;9.32;;;11.20;99.90;;;;;;5065985;28;20044;-85
2023/04/01 08:13:10;;;;;;;20.00;9.48;;;11.20;99.90;;;;;;5081853;28;20051;-89
2023/04/01 08:15:48;;;;;;;20.95;9.18;;;11.20;99.90;;;;;;5046512;28;20136;-85
2023/04/01 08:18:40;;;;;;;21.40;9.70;;;11.20;99.90;;;;;;5056023;28;20052;-88
2023/04/01 08:21:19;;;;;;;19.95;9.75;;;11.30;99.90;;;;;;5058451;28;20127;-89
2023/04/01 08:23:49;;;;;;;18.77;8.45;;;11.30;99.90;;;;;;5071779;28;20060;-88
2023/04/01 08:26:36;;;;;;;17.02;9.80;;;11.20;99.90;;;;;;5066731;28;20537;-86
2023/04/01 08:29:22;;;;;;;16.30;8.85;;;11.20;99.90;;;;;;5067567;28;20090;-85
2023/04/01 08:32:06;;;;;;;16.70;7.50;;;11.00;99.90;;;;;;5062722;28;20132;-85
2023/04/01 08:34:42;;;;;;;19.77;8.63;;;11.00;99.90;;;;;;5045094;28;20444;-84
2023/04/01 08:37:14;;;;;;;16.75;7.07;;;10.90;99.90;;;;;;5068861;28;20071;-84
2023/04/01 08:40:15;;;;;;;15.10;7.07;;;11.00;99.90;;;;;;5066686;28;20067;-91
2023/04/01 08:43:04;;;;;;;11.52;5.63;;;11.00;99.90;;;;;;5023021;28;20355;-86
2023/04/01 08:45:52;;;;;;;13.18;6.15;;;11.10;99.90;;;;;;5075510;28;20050;-83
2023/04/01 08:48:48;;;;;;;9.50;4.75;;;11.10;99.90;;;;;;5067492;28;20501;-84
2023/04/01 08:51:43;;;;;;;10.82;5.07;;;11.10;99.90;;;;;;5070154;28;20045;-84
2023/04/01 08:54:29;;;;;;;11.43;5.18;;;11.10;99.90;;;;;;5087245;28;20099;-84
2023/04/01 08:57:12;;;;;;;10.30;5.07;;;11.10;99.90;;;;;;5050739;28;20080;-84
2023/04/01 09:00:00;;;;;;;14.50;6.82;;;11.10;99.90;;;;;;5053097;28;20139;-84
2023/04/01 09:03:04;;;;;;;16.20;7.80;;;11.00;99.90;;;;;;5044150;28;20048;-84
2023/04/01 09:05:59;;;;;;;16.23;7.75;;;10.90;99.90;;;;;;5082321;28;20052;-84
2023/04/01 09:08:47;;;;;;;15.75;8.00;;;10.80;99.90;;;;;;5063049;28;20447;-84
2023/04/01 09:11:21;;;;;;;18.42;8.25;;;10.80;99.90;;;;;;5051368;28;20076;-84
2023/04/01 09:14:06;;;;;;;17.58;8.55;;;10.90;99.90;;;;;;5065540;28;20121;-84
2023/04/01 09:16:44;;;;;;;18.90;9.30;;;10.80;99.90;;;;;;5071210;28;20120;-84
2023/04/01 09:19:28;;;;;;;19.70;9.68;;;10.90;99.90;;;;;;5074806;28;20044;-83
2023/04/01 09:22:13;;;;;;;20.40;10.10;;;11.00;99.90;;;;;;5052253;28;20113;-84
2023/04/01 09:24:41;;;;;;;19.00;9.30;;;11.10;99.90;;;;;;5073111;28;20051;-86
2023/04/01 09:27:10;;;;;;;17.10;8.82;;;11.20;99.90;;;;;;5080619;28;20063;-83
2023/04/01 09:30:05;;;;;;;18.58;9.93;;;11.20;99.90;;;;;;5066571;28;20090;-83
2023/04/01 09:32:48;;;;;;;20.63;9.35;;;11.30;99.90;;;;;;5074736;28;20106;-83
2023/04/01 09:35:38;;;;;;;15.70;8.90;;;11.40;99.90;;;;;;5066711;28;20075;-85
2023/04/01 09:38:21;;;;;;;17.15;9.00;;;11.40;99.90;;;;;;5069593;28;20037;-83
2023/04/01 09:40:46;;;;;;;17.08;8.70;;;11.40;99.90;;;;;;5069049;28;20057;-83
2023/04/01 09:43:46;;;;;;;18.05;8.32;;;11.40;99.90;;;;;;5069726;28;20098;-83
2023/04/01 09:46:35;;;;;;;15.38;8.55;;;11.40;99.90;;;;;;5056875;28;20482;-84
2023/04/01 09:49:06;;;;;;;17.35;9.18;;;11.30;99.90;;;;;;5064771;28;20282;-85
2023/04/01 09:52:04;;;;;;;16.23;8.93;;;11.20;99.90;;;;;;5070489;28;20079;-83
2023/04/01 09:55:16;;;;;;;16.13;9.23;;;11.30;99.90;;;;;;5032120;28;20056;-84
2023/04/01 09:58:23;;;;;;;16.35;8.82;;;11.40;99.90;;;;;;5054131;28;20075;-87
2023/04/01 10:01:07;;;;;;;15.55;8.50;;;11.50;99.90;;;;;;5047327;28;20054;-83
2023/04/01 10:04:01;;;;;;;14.98;7.72;;;11.60;99.90;;;;;;5051385;28;20059;-85
2023/04/01 10:06:48;;;;;;;10.25;6.35;;;11.50;99.90;;;;;;5068171;28;20056;-83
2023/04/01 10:09:29;;;;;;;10.27;5.60;;;11.30;99.90;;;;;;5066755;28;20459;-83
2023/04/01 10:12:14;;;;;;;9.32;5.35;;;11.30;99.90;;;;;;5070954;28;20059;-84
2023/04/01 10:14:58;;;;;;;8.70;5.20;;;11.30;99.90;;;;;;5060221;28;20127;-84
2023/04/01 10:17:58;;;;;;;9.32;4.90;;;11.20;99.90;;;;;;5070850;28;20040;-82
2023/04/01 10:20:35;;;;;;;5.95;4.28;;;11.10;99.90;;;;;;5090484;28;20044;-82
2023/04/01 10:23:27;;;;;;;7.57;4.07;;;10.90;99.90;;;;;;5068242;28;20671;-82
2023/04/01 10:26:07;;;;;;;6.72;3.83;;;10.80;99.90;;;;;;5049325;28;20056;-81
2023/04/01 10:28:52;;;;;;;6.53;3.65;;;10.80;99.90;;;;;;5071531;28;20048;-80
2023/04/01 10:32:03;;;;;;;5.93;4.10;;;10.80;99.90;;;;;;5072827;28;20043;-82
2023/04/01 10:34:28;;;;;;;6.10;4.13;;;10.50;99.90;;;;;;5072739;28;20074;-82
2023/04/01 10:37:03;;;;;;;7.55;4.13;;;10.60;99.90;;;;;;5052706;28;20088;-84
2023/04/01 10:40:02;;;;;;;7.43;4.60;;;10.50;99.90;;;;;;5054186;28;20040;-84
2023/04/01 10:43:13;;;;;;;6.22;4.55;;;10.40;99.90;;;;;;5091751;28;20409;-83
2023/04/01 10:46:11;;;;;;;5.95;4.13;;;10.20;99.90;;;;;;5072099;28;20050;-83
2023/04/01 10:49:10;;;;;;;6.18;4.43;;;10.30;99.90;;;;;;5070070;28;20095;-84
2023/04/01 10:52:25;;;;;;;9.15;4.55;;;10.20;99.90;;;;;;5059555;28;20039;-84
2023/04/01 10:55:28;;;;;;;5.30;3.65;;;10.40;99.90;;;;;;4982589;28;20049;-84
2023/04/01 10:57:59;;;;;;;7.72;4.63;;;10.40;99.90;;;;;;5069997;28;20043;-84
2023/04/01 11:00:50;;;;;;;6.72;4.30;;;10.20;99.90;;;;;;5071780;28;20048;-83
2023/04/01 11:03:53;;;;;;;7.50;4.07;;;10.20;99.90;;;;;;5072652;28;20093;-83
2023/04/01 11:06:43;;;;;;;5.50;3.67;;;10.20;99.90;;;;;;5070853;28;20052;-82
2023/04/01 11:09:36;;;;;;;9.80;5.22;;;10.20;99.90;;;;;;5056684;28;20055;-80
2023/04/01 11:12:27;;;;;;;7.10;4.35;;;10.20;99.90;;;;;;5074537;28;20086;-84
2023/04/01 11:15:30;;;;;;;9.18;4.45;;;10.00;99.90;;;;;;5070421;28;20118;-84
2023/04/01 11:18:03;;;;;;;5.97;3.47;;;10.20;99.90;;;;;;5059702;28;20048;-83
2023/04/01 11:20:44;;;;;;;4.03;3.08;;;10.00;99.90;;;;;;5074934;28;20098;-82
2023/04/01 11:23:29;;;;;;;5.10;3.65;;;9.90;99.90;;;;;;5073290;28;21293;-82
2023/04/01 11:26:09;;;;;;;3.80;2.63;;;10.00;99.90;;;;;;5064012;28;20135;-82
2023/04/01 11:29:13;;;;;;;4.15;2.95;;;10.10;99.90;;;;;;5071105;28;20056;-81
2023/04/01 11:32:07;;;;;;;3.72;2.80;;;10.00;99.90;;;;;;5054563;28;20040;-81
2023/04/01 11:34:45;;;;;;;4.47;2.90;;;10.10;99.90;;;;;;5071750;28;20048;-81
2023/04/01 11:37:36;;;;;;;8.00;5.30;;;10.10;99.90;;;;;;5054979;28;20052;-81
2023/04/01 11:40:14;;;;;;;3.50;2.63;;;10.00;99.90;;;;;;5051935;28;20049;-81
2023/04/01 11:42:54;;;;;;;3.22;2.55;;;10.10;99.90;;;;;;5051701;28;20048;-81
2023/04/01 11:45:46;;;;;;;4.13;2.97;;;10.00;99.90;;;;;;5046428;28;20127;-79
2023/04/01 11:48:36;;;;;;;3.65;2.85;;;10.00;99.90;;;;;;5056756;28;20119;-79
2023/04/01 11:51:16;;;;;;;3.88;2.95;;;9.90;99.90;;;;;;5073582;28;20111;-80
2023/04/01 11:53:56;;;;;;;4.82;2.65;;;9.70;99.90;;;;;;5063969;28;20044;-79
2023/04/01 11:56:41;;;;;;;3.97;2.95;;;9.80;99.90;;;;;;5042334;28;20094;-78
2023/04/01 11:59:55;;;;;;;3.95;3.03;;;9.80;99.90;;;;;;5041128;28;20051;-78
2023/04/01 12:02:40;;;;;;;3.35;2.67;;;9.80;99.90;;;;;;5004745;28;20054;-78
2023/04/01 12:05:24;;;;;;;5.38;3.35;;;9.90;99.90;;;;;;5061892;28;20512;-78
2023/04/01 12:08:07;;;;;;;4.40;3.83;;;9.90;99.90;;;;;;5040296;28;20055;-79
2023/04/01 12:10:45;;;;;;;4.22;2.83;;;9.70;99.90;;;;;;5059254;28;20074;-78
2023/04/01 12:13:42;;;;;;;16.65;8.02;;;9.90;99.90;;;;;;5041709;28;20057;-81
2023/04/01 12:16:41;;;;;;;7.43;4.05;;;9.80;99.90;;;;;;5049841;28;20089;-79
2023/04/01 12:19:38;;;;;;;37.60;17.55;;;9.90;99.90;;;;;;5059462;28;20044;-79
2023/04/01 12:22:04;;;;;;;5.82;4.20;;;10.00;99.90;;;;;;5041604;28;20050;-79
2023/04/01 12:24:54;;;;;;;6.93;4.65;;;10.00;99.90;;;;;;5055296;28;20394;-79
2023/04/01 12:27:25;;;;;;;6.63;4.38;;;10.10;99.90;;;;;;5038175;28;20132;-79
2023/04/01 12:30:03;;;;;;;5.25;3.80;;;10.00;99.90;;;;;;5071168;28;20113;-79
2023/04/01 12:33:00;;;;;;;4.88;2.85;;;10.00;99.90;;;;;;5074724;28;20040;-79
2023/04/01 12:35:45;;;;;;;3.47;2.75;;;10.00;99.90;;;;;;5041714;28;20087;-79
2023/04/01 12:38:40;;;;;;;5.40;4.03;;;9.80;99.90;;;;;;5072914;28;20051;-79
2023/04/01 12:41:44;;;;;;;4.03;3.28;;;9.90;99.90;;;;;;5074124;28;20040;-80
2023/04/01 12:44:40;;;;;;;3.55;2.60;;;9.90;99.90;;;;;;5028670;28;20056;-79
2023/04/01 12:47:44;;;;;;;5.75;3.55;;;9.90;99.90;;;;;;5074648;28;20044;-81
2023/04/01 12:50:28;;;;;;;3.55;2.88;;;9.90;99.90;;;;;;5091073;28;20043;-80
2023/04/01 12:53:34;;;;;;;3.92;3.30;;;10.40;99.90;;;;;;5067967;28;20075;-79
2023/04/01 12:56:06;;;;;;;3.88;3.00;;;9.90;99.90;;;;;;5063096;28;20044;-80
2023/04/01 12:58:51;;;;;;;4.63;3.33;;;9.80;99.90;;;;;;5058701;28;20052;-80
2023/04/01 13:01:36;;;;;;;4.50;3.22;;;9.80;99.90;;;;;;5059401;28;20105;-80
2023/04/01 13:04:14;;;;;;;4.20;3.38;;;9.70;99.90;;;;;;5044294;28;20040;-79
2023/04/01 13:06:59;;;;;;;5.43;3.53;;;9.50;99.90;;;;;;5074275;28;20054;-79
2023/04/01 13:09:55;;;;;;;4.90;3.63;;;9.60;99.90;;;;;;5072620;28;20056;-79
2023/04/01 13:12:45;;;;;;;4.88;3.88;;;9.50;99.90;;;;;;5059074;28;20036;-79
2023/04/01 13:15:32;;;;;;;7.45;5.57;;;9.30;99.90;;;;;;5059394;28;20048;-80
2023/04/01 13:18:38;;;;;;;4.35;3.28;;;9.50;99.90;;;;;;5056239;28;20061;-81
2023/04/01 13:21:13;;;;;;;5.07;3.47;;;9.40;99.90;;;;;;5053113;28;20397;-80
2023/04/01 13:24:17;;;;;;;3.17;2.50;;;9.30;99.90;;;;;;5072546;28;20055;-80
2023/04/01 13:27:05;;;;;;;6.57;4.05;;;9.40;99.90;;;;;;5070609;28;20052;-79
2023/04/01 13:29:34;;;;;;;3.15;2.33;;;9.30;99.90;;;;;;5072962;28;20051;-79
2023/04/01 13:32:23;;;;;;;3.25;2.30;;;9.40;99.90;;;;;;5073781;28;20048;-80
2023/04/01 13:35:00;;;;;;;8.98;5.63;;;9.40;99.90;;;;;;5073571;28;20055;-80
2023/04/01 13:37:28;;;;;;;3.08;2.33;;;9.40;99.90;;;;;;5089994;28;20082;-80